Weather at Lanseria International Airport

Public forecast

Using degrees Celsius for public forecast. Weather courtesy of forecast.io.

Current aviation weather report (METAR) for Lanseria International Airport

Retrieved 2022/08/15 04:00 UTC (39 minutes ago):

FALA 150400Z 16010KT CAVOK 06/M06 Q1022 NOSIG

Aviation forecast (TAF) for Lanseria International Airport

Retrieved 2022-08-15 00:42 UTC (4 hours ago):

TAF FALA 142200Z 1500/1524 18010KT CAVOK TX17/1513Z TN03/1504Z BECMG 1513/1515 VRB03KT